Time;durP1;ratioP1;P1;durP2;ratioP2;P2;SDS_P1;SDS_P2;PMS_P1;PMS_P2;Temp;Humidity;BMP_temperature;BMP_pressure;BME280_temperature;BME280_humidity;BME280_pressure;Samples;Min_cycle;Max_cycle;Signal;HPM_P1;HPM_P2
2022/07/24 00:00:21;;;;;;;;;;;;;;;25.58;46.57;98927.72;1661811;85;21231;-71
2022/07/24 00:02:48;;;;;;;;;;;;;;;25.57;47.77;98944.63;1661783;85;20102;-72
2022/07/24 00:05:14;;;;;;;;;;;;;;;25.54;48.18;98946.55;1668228;85;20089;-70
2022/07/24 00:07:40;;;;;;;;;;;;;;;25.50;48.99;98929.13;1666150;85;20630;-70
2022/07/24 00:10:09;;;;;;;;;;;;;;;25.45;50.24;98955.53;1661840;85;20448;-69
2022/07/24 00:12:35;;;;;;;;;;;;;;;25.40;50.68;98969.98;1661848;85;21188;-69
2022/07/24 00:15:04;;;;;;;;;;;;;;;25.37;51.55;98960.22;1667398;85;20106;-70
2022/07/24 00:17:31;;;;;;;;;;;;;;;25.32;52.77;98956.13;1672457;85;20151;-70
2022/07/24 00:19:57;;;;;;;;;;;;;;;25.26;53.22;98962.70;1663304;85;20118;-70
2022/07/24 00:22:24;;;;;;;;;;;;;;;25.18;53.71;98953.20;1661937;85;20097;-71
2022/07/24 00:24:51;;;;;;;;;;;;;;;25.12;54.09;98950.22;1671718;85;21171;-70
2022/07/24 00:27:18;;;;;;;;;;;;;;;25.03;54.39;98950.50;1682430;85;20105;-72
2022/07/24 00:29:45;;;;;;;;;;;;;;;24.96;54.66;98989.44;1647973;86;20140;-70
2022/07/24 00:32:11;;;;;;;;;;;;;;;24.89;54.78;98997.08;1661983;85;20126;-71
2022/07/24 00:34:38;;;;;;;;;;;;;;;24.82;55.00;98981.59;1667046;85;20489;-71
2022/07/24 00:37:04;;;;;;;;;;;;;;;24.76;55.07;98973.95;1661736;85;21098;-70
2022/07/24 00:39:30;;;;;;;;;;;;;;;24.68;55.36;98981.84;1662011;85;20118;-72
2022/07/24 00:41:58;;;;;;;;;;;;;;;24.59;55.60;98969.33;1663335;85;20090;-70
2022/07/24 00:44:25;;;;;;;;;;;;;;;24.54;55.87;98969.33;1659606;85;20502;-69
2022/07/24 00:46:51;;;;;;;;;;;;;;;24.49;56.06;98962.54;1671400;85;20099;-70
2022/07/24 00:49:19;;;;;;;;;;;;;;;24.46;56.29;98955.75;1663713;85;20114;-70
2022/07/24 00:51:47;;;;;;;;;;;;;;;24.41;56.54;98946.23;1664049;85;20145;-70
2022/07/24 00:54:14;;;;;;;;;;;;;;;24.37;56.82;98942.98;1663054;85;20075;-70
2022/07/24 00:56:41;;;;;;;;;;;;;;;24.31;57.10;98940.80;1672540;85;20101;-70
2022/07/24 00:59:08;;;;;;;;;;;;;;;24.26;57.29;98936.73;1662005;85;20093;-70
2022/07/24 01:01:34;;;;;;;;;;;;;;;24.23;57.40;98941.34;1661956;85;21154;-70
2022/07/24 01:04:01;;;;;;;;;;;;;;;24.19;57.64;98948.42;1664956;85;20083;-72
2022/07/24 01:06:28;;;;;;;;;;;;;;;24.12;57.75;98929.37;1627118;86;20090;-70
2022/07/24 01:08:54;;;;;;;;;;;;;;;24.07;57.90;98946.45;1662031;85;20150;-71
2022/07/24 01:11:22;;;;;;;;;;;;;;;24.04;58.11;98938.05;1657429;85;20160;-70
2022/07/24 01:13:49;;;;;;;;;;;;;;;24.00;58.35;98936.94;1678861;84;21336;-70
2022/07/24 01:16:15;;;;;;;;;;;;;;;24.00;58.51;98933.69;1694876;84;20124;-70
2022/07/24 01:18:42;;;;;;;;;;;;;;;24.00;58.67;98934.23;1665965;84;20446;-72
2022/07/24 01:21:08;;;;;;;;;;;;;;;24.00;58.77;98951.88;1640958;86;20141;-70
2022/07/24 01:23:35;;;;;;;;;;;;;;;23.95;59.04;98946.73;1651195;85;20162;-70
2022/07/24 01:26:02;;;;;;;;;;;;;;;23.90;59.32;98946.73;1673844;84;21150;-70
2022/07/24 01:28:29;;;;;;;;;;;;;;;23.85;59.64;98943.18;1689738;84;20129;-70
2022/07/24 01:30:56;;;;;;;;;;;;;;;23.80;59.95;98933.67;1652222;85;20126;-70
2022/07/24 01:33:23;;;;;;;;;;;;;;;23.76;60.24;98925.77;1663098;84;20860;-73
2022/07/24 01:35:51;;;;;;;;;;;;;;;23.72;60.50;98917.36;1652900;85;20141;-71
2022/07/24 01:38:18;;;;;;;;;;;;;;;23.70;60.76;98914.64;1652083;85;22041;-72
2022/07/24 01:40:45;;;;;;;;;;;;;;;23.68;60.93;98907.28;1652063;85;20182;-71
2022/07/24 01:43:11;;;;;;;;;;;;;;;23.66;61.17;98908.10;1649084;85;20195;-70
2022/07/24 01:45:37;;;;;;;;;;;;;;;23.64;61.30;98908.92;1651425;85;20126;-71
2022/07/24 01:48:04;;;;;;;;;;;;;;;23.61;61.45;98902.66;1659570;85;20416;-71
2022/07/24 01:50:32;;;;;;;;;;;;;;;23.58;61.59;98899.12;1652151;85;21175;-71
2022/07/24 01:53:01;;;;;;;;;;;;;;;23.55;61.78;98888.80;1652666;85;20150;-72
2022/07/24 01:55:27;;;;;;;;;;;;;;;23.50;61.93;98885.53;1650928;85;20436;-70
2022/07/24 01:57:53;;;;;;;;;;;;;;;23.48;62.04;98888.24;1652035;85;20376;-69
2022/07/24 02:00:20;;;;;;;;;;;;;;;23.45;62.24;98880.63;1655997;85;20374;-72
2022/07/24 02:02:46;;;;;;;;;;;;;;;23.42;62.42;98882.52;1654870;85;21152;-70
2022/07/24 02:05:14;;;;;;;;;;;;;;;23.37;62.66;98883.86;1654236;85;20076;-70
2022/07/24 02:07:42;;;;;;;;;;;;;;;23.34;62.80;98888.72;1655865;85;20082;-72
2022/07/24 02:10:09;;;;;;;;;;;;;;;23.32;62.90;98884.10;1653606;85;20787;-71
2022/07/24 02:12:35;;;;;;;;;;;;;;;23.30;63.08;98882.20;1657872;85;20157;-70
2022/07/24 02:15:04;;;;;;;;;;;;;;;23.24;63.30;98890.05;1650048;85;21200;-71
2022/07/24 02:17:30;;;;;;;;;;;;;;;23.19;63.55;98876.46;1667254;85;20108;-72
2022/07/24 02:19:57;;;;;;;;;;;;;;;23.12;63.79;98878.61;1652680;85;20468;-73
2022/07/24 02:22:23;;;;;;;;;;;;;;;23.03;64.16;98873.41;1608455;88;20171;-70
2022/07/24 02:24:49;;;;;;;;;;;;;;;22.94;64.60;98859.27;1657091;85;20098;-70
2022/07/24 02:27:16;;;;;;;;;;;;;;;22.81;65.12;98861.94;1661300;85;21271;-70
2022/07/24 02:29:42;;;;;;;;;;;;;;;22.70;65.58;98858.36;1656991;85;20476;-70
2022/07/24 02:32:09;;;;;;;;;;;;;;;22.65;66.02;98851.55;1667102;85;20201;-70
2022/07/24 02:34:35;;;;;;;;;;;;;;;22.62;66.30;98852.58;1652200;85;20153;-70
2022/07/24 02:37:01;;;;;;;;;;;;;;;22.57;66.55;98865.56;1674154;84;20337;-70
2022/07/24 02:39:28;;;;;;;;;;;;;;;22.58;66.75;98873.13;1654420;85;21166;-70
2022/07/24 02:41:54;;;;;;;;;;;;;;;22.61;66.76;98871.27;1670233;84;20155;-70
2022/07/24 02:44:21;;;;;;;;;;;;;;;22.59;66.90;98863.41;1654738;85;20110;-69
2022/07/24 02:46:48;;;;;;;;;;;;;;;22.58;67.06;98865.00;1679917;84;20142;-70
2022/07/24 02:49:14;;;;;;;;;;;;;;;22.59;67.17;98862.58;1640206;86;20435;-71
2022/07/24 02:51:41;;;;;;;;;;;;;;;22.59;67.26;98866.65;1673376;84;21115;-73
2022/07/24 02:54:08;;;;;;;;;;;;;;;22.64;67.28;98874.30;1671481;84;20528;-72
2022/07/24 02:56:35;;;;;;;;;;;;;;;22.72;67.18;98887.90;1656257;85;20614;-70
2022/07/24 02:59:01;;;;;;;;;;;;;;;22.80;67.03;98906.39;1644356;86;20112;-71
2022/07/24 03:01:29;;;;;;;;;;;;;;;22.86;66.89;98933.81;1642026;86;20097;-70
2022/07/24 03:03:55;;;;;;;;;;;;;;;22.90;66.81;98924.59;1671400;84;21196;-70
2022/07/24 03:06:22;;;;;;;;;;;;;;;22.90;66.68;98907.79;1654290;85;20106;-71
2022/07/24 03:08:49;;;;;;;;;;;;;;;22.91;66.73;98896.41;1671991;84;20218;-69
2022/07/24 03:11:16;;;;;;;;;;;;;;;22.94;66.67;98899.42;1646698;86;20141;-70
2022/07/24 03:13:42;;;;;;;;;;;;;;;22.96;66.60;98882.88;1674162;84;20101;-70
2022/07/24 03:16:10;;;;;;;;;;;;;;;22.94;66.68;98881.80;1671426;84;22782;-70
2022/07/24 03:18:36;;;;;;;;;;;;;;;22.81;67.21;98866.00;1653539;85;20161;-71
2022/07/24 03:21:04;;;;;;;;;;;;;;;22.63;68.19;98848.83;1687618;84;20113;-71
2022/07/24 03:23:30;;;;;;;;;;;;;;;22.41;69.07;98856.23;1671832;84;20111;-72
2022/07/24 03:25:57;;;;;;;;;;;;;;;22.29;69.73;98881.37;1654528;85;20452;-73
2022/07/24 03:28:24;;;;;;;;;;;;;;;22.31;70.08;98888.16;1674077;84;21177;-71
2022/07/24 03:30:50;;;;;;;;;;;;;;;22.37;70.22;98878.97;1678089;84;20106;-71
2022/07/24 03:33:16;;;;;;;;;;;;;;;22.42;70.28;98870.87;1682149;84;20460;-70
2022/07/24 03:35:43;;;;;;;;;;;;;;;22.44;70.48;98864.67;1634263;86;20119;-70
2022/07/24 03:38:09;;;;;;;;;;;;;;;22.48;70.49;98850.05;1638689;86;20101;-70
2022/07/24 03:40:35;;;;;;;;;;;;;;;22.43;70.65;98856.25;1638702;86;21117;-73
2022/07/24 03:43:03;;;;;;;;;;;;;;;22.33;71.17;98853.48;1665551;86;20149;-70
2022/07/24 03:45:31;;;;;;;;;;;;;;;22.24;71.75;98847.47;1641387;86;20113;-71
2022/07/24 03:47:57;;;;;;;;;;;;;;;22.17;72.33;98848.20;1672561;85;21155;-70
2022/07/24 03:50:23;;;;;;;;;;;;;;;22.08;72.99;98857.37;1655884;85;20090;-70
2022/07/24 03:52:51;;;;;;;;;;;;;;;21.99;73.43;98867.86;1628273;86;21219;-71
2022/07/24 03:55:18;;;;;;;;;;;;;;;21.93;74.03;98866.17;1643246;86;20094;-73
2022/07/24 03:57:44;;;;;;;;;;;;;;;21.88;74.33;98863.42;1651105;85;20110;-70
2022/07/24 04:00:11;;;;;;;;;;;;;;;21.86;74.68;98875.06;1660096;86;20122;-71
2022/07/24 04:02:40;;;;;;;;;;;;;;;21.89;74.82;98900.27;1650495;85;20426;-70
2022/07/24 04:05:08;;;;;;;;;;;;;;;22.00;74.84;98904.68;1651591;86;21164;-70
2022/07/24 04:07:36;;;;;;;;;;;;;;;22.10;74.83;98918.87;1651430;86;20199;-70
2022/07/24 04:10:03;;;;;;;;;;;;;;;22.19;74.60;98923.28;1660150;85;20435;-70
2022/07/24 04:12:31;;;;;;;;;;;;;;;22.26;74.67;98927.94;1650081;85;20128;-71
2022/07/24 04:14:57;;;;;;;;;;;;;;;22.29;74.85;98937.70;1642972;86;20156;-72
2022/07/24 04:17:23;;;;;;;;;;;;;;;22.31;75.17;98938.81;1627660;86;21170;-73
2022/07/24 04:19:51;;;;;;;;;;;;;;;22.34;75.43;98946.43;1633235;86;20119;-72
2022/07/24 04:22:17;;;;;;;;;;;;;;;22.35;75.95;98936.67;1634334;86;20088;-72
2022/07/24 04:24:44;;;;;;;;;;;;;;;22.37;76.24;98941.29;1652059;86;20090;-70
2022/07/24 04:27:10;;;;;;;;;;;;;;;22.40;76.33;98951.62;1681492;85;20449;-71
2022/07/24 04:29:37;;;;;;;;;;;;;;;22.42;76.66;98947.31;1634180;86;21150;-71
2022/07/24 04:32:04;;;;;;;;;;;;;;;22.46;76.74;98948.41;1634180;86;20133;-69
2022/07/24 04:34:30;;;;;;;;;;;;;;;22.50;76.64;98948.98;1647441;85;20149;-70
2022/07/24 04:36:57;;;;;;;;;;;;;;;22.55;76.76;98959.06;1673394;85;20431;-72
2022/07/24 04:39:23;;;;;;;;;;;;;;;22.60;76.85;98946.91;1669278;84;20461;-73
2022/07/24 04:41:49;;;;;;;;;;;;;;;22.64;76.89;98941.25;1651953;85;21064;-71
2022/07/24 04:44:16;;;;;;;;;;;;;;;22.69;76.79;98931.27;1669206;84;20206;-71
2022/07/24 04:46:42;;;;;;;;;;;;;;;22.72;76.77;98943.48;1680599;84;20146;-72
2022/07/24 04:49:08;;;;;;;;;;;;;;;22.71;76.79;98943.19;1674393;84;20403;-69
2022/07/24 04:51:34;;;;;;;;;;;;;;;22.67;76.61;98942.09;1652902;85;20484;-70
2022/07/24 04:54:01;;;;;;;;;;;;;;;22.65;76.85;98940.19;1670178;84;21170;-69
2022/07/24 04:56:31;;;;;;;;;;;;;;;22.66;76.95;98939.09;1670889;84;20083;-70
2022/07/24 04:58:56;;;;;;;;;;;;;;;22.67;76.90;98943.45;1678665;84;20210;-72
2022/07/24 05:01:22;;;;;;;;;;;;;;;22.67;77.01;98943.45;1655944;85;20143;-70
2022/07/24 05:03:48;;;;;;;;;;;;;;;22.64;76.84;98940.72;1669221;84;20140;-71
2022/07/24 05:06:15;;;;;;;;;;;;;;;22.65;76.67;98932.05;1648976;85;21134;-73
2022/07/24 05:08:42;;;;;;;;;;;;;;;22.68;76.55;98944.53;1667342;84;20118;-71
2022/07/24 05:11:09;;;;;;;;;;;;;;;22.70;76.33;98941.58;1668277;84;20104;-70
2022/07/24 05:13:36;;;;;;;;;;;;;;;22.71;76.23;98947.25;1640757;86;20443;-72
2022/07/24 05:16:03;;;;;;;;;;;;;;;22.69;76.22;98928.55;1667633;84;20126;-72
2022/07/24 05:18:30;;;;;;;;;;;;;;;22.69;76.24;98932.63;1669491;84;21168;-71
2022/07/24 05:20:56;;;;;;;;;;;;;;;22.68;76.17;98930.98;1678901;84;20227;-72
2022/07/24 05:23:23;;;;;;;;;;;;;;;22.67;76.07;98931.25;1671502;84;20123;-71
2022/07/24 05:25:50;;;;;;;;;;;;;;;22.67;75.89;98922.58;1652128;85;20448;-72
2022/07/24 05:28:16;;;;;;;;;;;;;;;22.67;76.07;98926.65;1665414;84;20224;-70
2022/07/24 05:30:44;;;;;;;;;;;;;;;22.68;76.04;98933.69;1668981;84;21762;-69
2022/07/24 05:33:10;;;;;;;;;;;;;;;22.69;75.89;98938.58;1682738;84;20473;-70
2022/07/24 05:35:36;;;;;;;;;;;;;;;22.70;75.78;98934.27;1642807;85;20154;-70
2022/07/24 05:38:03;;;;;;;;;;;;;;;22.69;75.62;98934.51;1647597;86;20172;-70
2022/07/24 05:40:29;;;;;;;;;;;;;;;22.68;75.52;98924.77;1650526;86;20103;-70
2022/07/24 05:42:55;;;;;;;;;;;;;;;22.67;75.42;98932.08;1656730;86;21119;-73
2022/07/24 05:45:21;;;;;;;;;;;;;;;22.66;75.21;98933.14;1646597;86;20123;-71
2022/07/24 05:47:48;;;;;;;;;;;;;;;22.63;75.10;98936.93;1658311;85;20525;-71
2022/07/24 05:50:14;;;;;;;;;;;;;;;22.58;75.20;98931.41;1652221;85;20090;-70
2022/07/24 05:52:42;;;;;;;;;;;;;;;22.54;75.27;98946.58;1652735;85;20123;-71
2022/07/24 05:55:08;;;;;;;;;;;;;;;22.49;75.40;98950.08;1652967;85;21827;-71
2022/07/24 05:57:34;;;;;;;;;;;;;;;22.44;75.67;98946.50;1652211;85;20110;-70
2022/07/24 06:00:01;;;;;;;;;;;;;;;22.38;75.93;98944.30;1652835;85;20122;-74
2022/07/24 06:02:27;;;;;;;;;;;;;;;22.34;76.26;98938.30;1652833;85;20376;-72
2022/07/24 06:04:54;;;;;;;;;;;;;;;22.29;76.66;98949.89;1651958;85;20489;-70
2022/07/24 06:07:20;;;;;;;;;;;;;;;22.28;76.86;98961.83;1661354;85;21256;-71
2022/07/24 06:09:47;;;;;;;;;;;;;;;22.26;77.09;98958.56;1654071;85;20114;-70
2022/07/24 06:12:13;;;;;;;;;;;;;;;22.23;77.30;98961.78;1652972;85;20435;-70
2022/07/24 06:14:39;;;;;;;;;;;;;;;22.21;77.41;98961.77;1645422;85;20130;-69
2022/07/24 06:17:05;;;;;;;;;;;;;;;22.18;77.68;98960.92;1650164;85;20105;-73
2022/07/24 06:19:33;;;;;;;;;;;;;;;22.14;77.84;98957.89;1644328;85;20624;-69
2022/07/24 06:22:00;;;;;;;;;;;;;;;22.11;78.10;98958.41;1656819;85;20103;-71
2022/07/24 06:24:26;;;;;;;;;;;;;;;22.08;78.29;98955.67;1652420;85;20121;-71
2022/07/24 06:26:52;;;;;;;;;;;;;;;22.07;78.48;98954.06;1646848;85;20624;-70
2022/07/24 06:29:18;;;;;;;;;;;;;;;22.07;78.55;98958.13;1657414;85;20474;-71
2022/07/24 06:31:48;;;;;;;;;;;;;;;22.08;78.64;98955.67;1669099;85;21211;-71
2022/07/24 06:34:16;;;;;;;;;;;;;;;22.10;78.69;98959.50;1649231;85;20452;-73
2022/07/24 06:36:43;;;;;;;;;;;;;;;22.10;78.82;98954.08;1670791;84;20261;-71
2022/07/24 06:39:09;;;;;;;;;;;;;;;22.10;78.89;98956.79;1674088;85;20647;-70
2022/07/24 06:41:35;;;;;;;;;;;;;;;22.12;78.95;98960.88;1690696;84;20158;-73
2022/07/24 06:44:02;;;;;;;;;;;;;;;22.16;78.87;98959.02;1672848;85;20577;-73
2022/07/24 06:46:28;;;;;;;;;;;;;;;22.22;78.81;98964.73;1640747;85;20169;-72
2022/07/24 06:48:55;;;;;;;;;;;;;;;22.24;78.70;98968.81;1691599;84;20449;-70
2022/07/24 06:51:21;;;;;;;;;;;;;;;22.29;78.77;98960.73;1675258;84;20150;-69
2022/07/24 06:53:48;;;;;;;;;;;;;;;22.33;78.53;98969.17;1677500;85;20523;-70
2022/07/24 06:56:14;;;;;;;;;;;;;;;22.36;78.38;98965.95;1682481;84;21169;-71
2022/07/24 06:58:41;;;;;;;;;;;;;;;22.39;78.30;98964.08;1667905;85;20143;-70
2022/07/24 07:01:07;;;;;;;;;;;;;;;22.40;78.24;98954.33;1648217;86;20164;-69
2022/07/24 07:03:34;;;;;;;;;;;;;;;22.44;78.13;98958.70;1670466;85;20168;-69
2022/07/24 07:06:00;;;;;;;;;;;;;;;22.45;78.15;98956.25;1690313;84;20450;-70
2022/07/24 07:08:27;;;;;;;;;;;;;;;22.49;77.94;98956.85;1657793;85;20992;-69
2022/07/24 07:10:53;;;;;;;;;;;;;;;22.49;77.73;98955.50;1689948;84;20170;-69
2022/07/24 07:13:21;;;;;;;;;;;;;;;22.51;77.71;98955.22;1666867;85;20478;-70
2022/07/24 07:15:49;;;;;;;;;;;;;;;22.53;77.65;98959.84;1694556;84;20135;-70
2022/07/24 07:18:17;;;;;;;;;;;;;;;22.55;77.72;98962.56;1679261;84;20471;-70
2022/07/24 07:20:43;;;;;;;;;;;;;;;22.61;77.74;98966.14;1695648;84;21236;-70
2022/07/24 07:23:10;;;;;;;;;;;;;;;22.68;78.15;98964.07;1684071;84;20513;-69
2022/07/24 07:25:37;;;;;;;;;;;;;;;22.77;78.28;98966.56;1650651;85;20196;-69
2022/07/24 07:28:04;;;;;;;;;;;;;;;22.83;77.74;98964.17;1669418;84;20229;-76
2022/07/24 07:30:30;;;;;;;;;;;;;;;22.92;77.54;98961.76;1676485;84;20345;-72
2022/07/24 07:32:57;;;;;;;;;;;;;;;22.98;77.04;98961.54;1686953;84;21234;-70
2022/07/24 07:35:24;;;;;;;;;;;;;;;23.05;76.94;98967.54;1669815;84;20538;-70
2022/07/24 07:37:50;;;;;;;;;;;;;;;23.15;76.90;98964.08;1689772;84;20107;-72
2022/07/24 07:40:16;;;;;;;;;;;;;;;23.29;77.05;98963.86;1697648;84;20456;-71
2022/07/24 07:42:43;;;;;;;;;;;;;;;23.50;77.08;98971.58;1691422;84;20173;-70
2022/07/24 07:45:09;;;;;;;;;;;;;;;23.69;76.76;98965.41;1679313;84;21641;-66
2022/07/24 07:47:41;;;;;;;;;;;;;;;23.94;76.13;98959.20;1666815;85;20177;-70
2022/07/24 07:50:05;;;;;;;;;;;;;;;24.22;75.45;98956.00;1695808;84;20487;-70
2022/07/24 07:52:32;;;;;;;;;;;;;;;24.48;74.17;98956.28;1670427;85;20136;-71
2022/07/24 07:54:58;;;;;;;;;;;;;;;24.76;72.69;98952.73;1679664;84;20149;-72
2022/07/24 07:57:25;;;;;;;;;;;;;;;25.00;71.36;98942.92;1691474;84;21152;-71
2022/07/24 07:59:52;;;;;;;;;;;;;;;25.29;70.53;98956.71;1670606;84;20141;-70
2022/07/24 08:02:18;;;;;;;;;;;;;;;25.60;69.66;98945.98;1696604;84;20994;-73
2022/07/24 08:04:44;;;;;;;;;;;;;;;25.84;68.67;98950.20;1688013;84;20155;-72
2022/07/24 08:07:11;;;;;;;;;;;;;;;26.04;67.75;98952.79;1691553;84;20145;-70
2022/07/24 08:09:37;;;;;;;;;;;;;;;26.32;67.12;98950.70;1689221;84;21139;-72
2022/07/24 08:12:04;;;;;;;;;;;;;;;26.65;65.34;98956.67;1696715;84;20213;-72
2022/07/24 08:14:32;;;;;;;;;;;;;;;27.35;64.63;98944.78;1660584;85;20127;-71
2022/07/24 08:16:59;;;;;;;;;;;;;;;28.83;61.47;98941.75;1669460;84;20147;-72
2022/07/24 08:19:27;;;;;;;;;;;;;;;29.50;56.97;98940.70;1688447;84;20512;-73
2022/07/24 08:21:54;;;;;;;;;;;;;;;29.64;55.13;98930.55;1642040;86;20720;-72
2022/07/24 08:24:21;;;;;;;;;;;;;;;29.75;54.48;98930.55;1678886;84;20209;-71
2022/07/24 08:26:48;;;;;;;;;;;;;;;29.92;53.71;98922.53;1672494;84;20175;-70
2022/07/24 08:29:14;;;;;;;;;;;;;;;30.06;53.16;98918.37;1645818;85;20158;-71
2022/07/24 08:31:40;;;;;;;;;;;;;;;30.39;52.14;98917.84;1670632;84;20248;-71
2022/07/24 08:34:06;;;;;;;;;;;;;;;31.04;50.22;98911.73;1681367;84;21534;-70
2022/07/24 08:36:33;;;;;;;;;;;;;;;31.43;48.74;98910.88;1691429;84;20178;-71
2022/07/24 08:38:59;;;;;;;;;;;;;;;31.50;47.36;98912.62;1670081;84;20127;-71
2022/07/24 08:41:32;;;;;;;;;;;;;;;31.44;47.07;98914.70;1671904;84;20124;-72
2022/07/24 08:43:57;;;;;;;;;;;;;;;31.32;47.34;98922.73;1647254;85;20176;-70
2022/07/24 08:46:26;;;;;;;;;;;;;;;31.20;47.75;98930.79;1692050;84;21168;-69
2022/07/24 08:48:52;;;;;;;;;;;;;;;31.23;47.27;98928.78;1675505;84;20100;-70
2022/07/24 08:51:19;;;;;;;;;;;;;;;31.20;47.43;98924.48;1648037;85;20259;-73
2022/07/24 08:53:47;;;;;;;;;;;;;;;31.21;47.70;98922.77;1689760;84;20159;-70
2022/07/24 08:56:13;;;;;;;;;;;;;;;31.27;47.96;98928.94;1691882;84;20103;-69
2022/07/24 08:58:40;;;;;;;;;;;;;;;31.39;46.88;98927.19;1668853;84;21745;-69
2022/07/24 09:01:07;;;;;;;;;;;;;;;32.23;45.70;98924.91;1638519;86;20181;-69
2022/07/24 09:03:43;;;;;;;;;;;;;;;33.58;43.37;98928.73;1660896;85;20076;-72
2022/07/24 09:06:10;;;;;;;;;;;;;;;34.00;41.50;98933.11;1687532;84;20478;-70
2022/07/24 09:08:43;;;;;;;;;;;;;;;34.35;40.12;98925.94;1667114;85;20152;-68
2022/07/24 09:11:09;;;;;;;;;;;;;;;34.46;39.35;98932.09;1681773;85;21380;-70
2022/07/24 09:16:25;;;;;;;;;;;;;;;34.18;38.24;98931.63;1692401;84;20460;-69
2022/07/24 09:19:04;;;;;;;;;;;;;;;33.99;38.67;98941.17;1639703;86;20439;-69
2022/07/24 09:21:35;;;;;;;;;;;;;;;33.95;39.15;98924.22;1670414;85;20152;-69
2022/07/24 09:24:17;;;;;;;;;;;;;;;33.69;39.17;98927.17;1665038;85;21215;-69
2022/07/24 09:26:51;;;;;;;;;;;;;;;33.33;40.55;98931.02;1652786;85;20166;-69
2022/07/24 09:29:20;;;;;;;;;;;;;;;33.12;41.04;98938.41;1643466;85;20146;-70
2022/07/24 09:31:58;;;;;;;;;;;;;;;32.79;40.81;98931.31;1679977;84;37982;-71
2022/07/24 09:34:26;;;;;;;;;;;;;;;32.48;41.49;98932.90;1668110;84;20268;-68
2022/07/24 09:37:01;;;;;;;;;;;;;;;32.28;41.60;98927.48;1662431;85;21218;-69
2022/07/24 09:39:28;;;;;;;;;;;;;;;32.11;42.03;98919.82;1641577;85;20439;-74
2022/07/24 09:41:56;;;;;;;;;;;;;;;32.00;42.29;98918.52;1667646;85;20187;-68
2022/07/24 09:44:25;;;;;;;;;;;;;;;31.78;42.64;98919.47;1632042;85;20118;-69
2022/07/24 09:46:57;;;;;;;;;;;;;;;31.46;43.18;98922.09;1670404;85;20171;-72
2022/07/24 09:49:24;;;;;;;;;;;;;;;31.10;43.67;98933.23;1673057;84;21319;-74
2022/07/24 09:52:14;;;;;;;;;;;;;;;30.69;44.65;98931.91;1670524;85;20164;-71
2022/07/24 09:54:44;;;;;;;;;;;;;;;30.38;45.58;98938.16;1649773;85;20496;-70
2022/07/24 09:57:22;;;;;;;;;;;;;;;30.09;46.73;98942.44;1661830;85;20136;-71
2022/07/24 09:59:54;;;;;;;;;;;;;;;29.77;47.62;98948.34;1639440;85;20415;-72
2022/07/24 10:02:26;;;;;;;;;;;;;;;29.41;48.50;98947.45;1653604;85;21160;-72
2022/07/24 10:04:53;;;;;;;;;;;;;;;29.16;49.62;98956.16;1639061;85;20122;-72
2022/07/24 10:07:22;;;;;;;;;;;;;;;28.90;50.83;98959.13;1646607;85;20465;-70
2022/07/24 10:09:51;;;;;;;;;;;;;;;28.58;52.26;98966.77;1649692;85;20141;-71
2022/07/24 10:12:25;;;;;;;;;;;;;;;28.28;53.60;98960.45;1664671;85;20123;-71
2022/07/24 10:14:53;;;;;;;;;;;;;;;27.97;55.27;98961.45;1658941;85;21141;-71
2022/07/24 10:17:20;;;;;;;;;;;;;;;27.73;56.66;98960.69;1666711;85;20079;-71
2022/07/24 10:19:49;;;;;;;;;;;;;;;27.56;57.84;98963.91;1660281;85;20130;-71
2022/07/24 10:22:18;;;;;;;;;;;;;;;27.40;58.95;98969.32;1662589;85;20127;-72
2022/07/24 10:24:48;;;;;;;;;;;;;;;27.31;59.92;98971.84;1652376;85;20102;-71
2022/07/24 10:27:33;;;;;;;;;;;;;;;27.17;60.81;98979.64;1656903;85;21247;-73
2022/07/24 10:30:08;;;;;;;;;;;;;;;27.03;61.63;98983.63;1679633;85;20481;-70
2022/07/24 10:32:35;;;;;;;;;;;;;;;26.92;62.18;98986.19;1677284;85;20144;-65
2022/07/24 10:35:21;;;;;;;;;;;;;;;26.82;62.89;98984.39;1653169;86;20099;-69
2022/07/24 10:37:52;;;;;;;;;;;;;;;26.75;63.51;98986.58;1692099;83;20089;-70
2022/07/24 10:40:31;;;;;;;;;;;;;;;26.68;64.05;98985.30;1674617;85;21340;-71
2022/07/24 10:43:09;;;;;;;;;;;;;;;26.67;64.71;98990.50;1677993;85;20103;-73
2022/07/24 10:45:43;;;;;;;;;;;;;;;26.74;65.17;98989.06;1639229;86;20078;-70
2022/07/24 10:48:23;;;;;;;;;;;;;;;26.85;65.34;98988.45;1669754;85;20097;-73
2022/07/24 10:51:07;;;;;;;;;;;;;;;26.87;65.16;98987.06;1672698;85;20446;-69
2022/07/24 10:53:40;;;;;;;;;;;;;;;26.80;64.29;98994.75;1687306;84;21189;-67
2022/07/24 10:56:38;;;;;;;;;;;;;;;26.80;64.19;98993.39;1693842;84;20160;-69
2022/07/24 10:59:09;;;;;;;;;;;;;;;26.90;64.01;98990.59;1657681;85;20167;-75
2022/07/24 11:01:39;;;;;;;;;;;;;;;27.06;63.91;99002.16;1696876;84;20154;-71
2022/07/24 11:04:24;;;;;;;;;;;;;;;27.21;63.93;98997.08;1680226;84;20174;-69
2022/07/24 11:07:10;;;;;;;;;;;;;;;27.36;63.01;98998.27;1691563;85;21261;-68
2022/07/24 11:09:57;;;;;;;;;;;;;;;27.41;61.65;98992.78;1674187;85;20128;-77
2022/07/24 11:12:29;;;;;;;;;;;;;;;27.38;61.55;98990.59;1669552;85;20112;-75
2022/07/24 11:17:47;;;;;;;;;;;;;;;27.63;62.04;98990.88;1690207;84;20166;-77
2022/07/24 11:20:19;;;;;;;;;;;;;;;27.78;61.35;98987.94;1682125;84;21168;-77
2022/07/24 11:22:54;;;;;;;;;;;;;;;27.87;60.49;98991.08;1666823;85;20156;-76
2022/07/24 11:25:23;;;;;;;;;;;;;;;27.92;59.43;98984.17;1673803;84;20093;-76
2022/07/24 11:27:58;;;;;;;;;;;;;;;28.00;58.99;98975.89;1668833;84;20705;-72
2022/07/24 11:30:29;;;;;;;;;;;;;;;28.14;59.02;98980.89;1666005;84;20149;-71
2022/07/24 11:32:56;;;;;;;;;;;;;;;28.35;58.71;98969.08;1665654;84;21241;-79
2022/07/24 11:35:34;;;;;;;;;;;;;;;28.55;57.35;98971.50;1666184;84;20130;-78
2022/07/24 11:38:01;;;;;;;;;;;;;;;28.69;56.58;98969.08;1684712;85;20114;-77
2022/07/24 11:40:28;;;;;;;;;;;;;;;28.80;56.38;98972.45;1668618;85;20146;-70
2022/07/24 11:42:57;;;;;;;;;;;;;;;28.95;55.68;98966.69;1661483;85;20455;-73
2022/07/24 11:45:24;;;;;;;;;;;;;;;28.99;54.48;98967.70;1666656;85;21173;-74
2022/07/24 11:47:54;;;;;;;;;;;;;;;28.93;54.98;98971.67;1686779;85;20097;-72
2022/07/24 11:50:23;;;;;;;;;;;;;;;28.87;54.60;98971.49;1677210;85;20469;-72
2022/07/24 11:52:49;;;;;;;;;;;;;;;28.80;54.85;98965.61;1688297;84;20196;-73
2022/07/24 11:55:20;;;;;;;;;;;;;;;28.84;55.00;98964.43;1688512;85;20227;-73
2022/07/24 11:57:50;;;;;;;;;;;;;;;28.89;55.03;98959.67;1674540;85;21165;-72
2022/07/24 12:00:24;;;;;;;;;;;;;;;28.99;55.15;98955.96;1673202;85;20913;-72
2022/07/24 12:02:53;;;;;;;;;;;;;;;29.16;54.93;98956.98;1685794;85;20439;-72
2022/07/24 12:05:28;;;;;;;;;;;;;;;29.31;54.05;98951.22;1689572;85;20657;-76
2022/07/24 12:07:56;;;;;;;;;;;;;;;29.33;52.91;98957.20;1685225;85;20232;-79
2022/07/24 12:10:22;;;;;;;;;;;;;;;29.33;52.91;98957.20;1688937;85;21184;-77
2022/07/24 12:12:51;;;;;;;;;;;;;;;29.28;52.78;98964.16;1686340;85;20187;-78
2022/07/24 12:15:18;;;;;;;;;;;;;;;29.24;54.00;98956.30;1689241;85;20145;-78
2022/07/24 12:18:00;;;;;;;;;;;;;;;29.22;54.12;98959.09;1690338;85;20158;-77
2022/07/24 12:20:28;;;;;;;;;;;;;;;29.10;54.36;98956.00;1680862;85;20479;-75
2022/07/24 12:22:55;;;;;;;;;;;;;;;28.99;54.53;98945.80;1689257;85;21878;-73
2022/07/24 12:25:21;;;;;;;;;;;;;;;28.94;54.83;98951.95;1666346;85;20221;-74
2022/07/24 12:27:49;;;;;;;;;;;;;;;28.96;55.01;98949.17;1666120;85;20176;-75
2022/07/24 12:30:19;;;;;;;;;;;;;;;29.00;54.51;98948.80;1686375;85;20172;-72
2022/07/24 12:32:59;;;;;;;;;;;;;;;28.95;53.28;98947.53;1681568;85;20222;-73
2022/07/24 12:35:26;;;;;;;;;;;;;;;28.82;52.73;98944.22;1657428;85;21741;-69
2022/07/24 12:37:52;;;;;;;;;;;;;;;28.73;52.53;98943.30;1679621;84;20186;-73
2022/07/24 12:40:24;;;;;;;;;;;;;;;28.71;52.77;98941.41;1684500;85;20168;-70
2022/07/24 12:43:02;;;;;;;;;;;;;;;28.68;53.50;98943.36;1658076;85;20100;-72
2022/07/24 12:45:29;;;;;;;;;;;;;;;28.70;53.17;98938.42;1689846;85;20208;-72
2022/07/24 12:48:16;;;;;;;;;;;;;;;28.66;52.36;98935.47;1671137;85;21160;-71
2022/07/24 12:51:03;;;;;;;;;;;;;;;28.70;51.66;98937.06;1672107;85;20122;-72
2022/07/24 12:53:32;;;;;;;;;;;;;;;28.81;52.04;98939.05;1671030;85;20422;-73
2022/07/24 12:56:03;;;;;;;;;;;;;;;28.90;51.09;98937.23;1684633;85;20442;-74
2022/07/24 12:58:32;;;;;;;;;;;;;;;28.96;50.90;98928.63;1684703;85;20444;-73